sensor_id;sensor_type;location;lat;lon;timestamp;P1;durP1;ratioP1;P2;durP2;ratioP2
27187;SDS011;14708;50.872;5.306;2023-04-21T00:01:41;3.85;;;2.85;;
27187;SDS011;14708;50.872;5.306;2023-04-21T00:04:06;3.38;;;2.92;;
27187;SDS011;14708;50.872;5.306;2023-04-21T00:06:33;5.18;;;3.00;;
27187;SDS011;14708;50.872;5.306;2023-04-21T00:09:00;3.95;;;2.92;;
27187;SDS011;14708;50.872;5.306;2023-04-21T00:11:26;3.40;;;2.83;;
27187;SDS011;14708;50.872;5.306;2023-04-21T00:13:51;3.70;;;2.85;;
27187;SDS011;14708;50.872;5.306;2023-04-21T00:16:17;4.15;;;3.25;;
27187;SDS011;14708;50.872;5.306;2023-04-21T00:18:46;3.45;;;2.90;;
27187;SDS011;14708;50.872;5.306;2023-04-21T00:21:12;3.60;;;3.10;;
27187;SDS011;14708;50.872;5.306;2023-04-21T00:23:38;2.97;;;2.50;;
27187;SDS011;14708;50.872;5.306;2023-04-21T00:26:04;4.47;;;3.13;;
27187;SDS011;14708;50.872;5.306;2023-04-21T00:28:30;3.55;;;2.67;;
27187;SDS011;14708;50.872;5.306;2023-04-21T00:30:55;3.58;;;2.70;;
27187;SDS011;14708;50.872;5.306;2023-04-21T00:33:30;3.22;;;2.85;;
27187;SDS011;14708;50.872;5.306;2023-04-21T00:35:56;3.50;;;2.92;;
27187;SDS011;14708;50.872;5.306;2023-04-21T00:38:23;3.80;;;2.63;;
27187;SDS011;14708;50.872;5.306;2023-04-21T00:40:48;4.55;;;3.30;;
27187;SDS011;14708;50.872;5.306;2023-04-21T00:43:14;3.33;;;2.70;;
27187;SDS011;14708;50.872;5.306;2023-04-21T00:48:26;4.43;;;2.72;;
27187;SDS011;14708;50.872;5.306;2023-04-21T00:50:51;3.90;;;3.10;;
27187;SDS011;14708;50.872;5.306;2023-04-21T00:53:17;2.92;;;2.60;;
27187;SDS011;14708;50.872;5.306;2023-04-21T00:55:44;5.20;;;3.05;;
27187;SDS011;14708;50.872;5.306;2023-04-21T00:58:11;3.10;;;2.80;;
27187;SDS011;14708;50.872;5.306;2023-04-21T01:00:41;3.88;;;3.42;;
27187;SDS011;14708;50.872;5.306;2023-04-21T01:03:08;3.55;;;3.22;;
27187;SDS011;14708;50.872;5.306;2023-04-21T01:05:34;3.38;;;2.78;;
27187;SDS011;14708;50.872;5.306;2023-04-21T01:08:01;3.38;;;2.90;;
27187;SDS011;14708;50.872;5.306;2023-04-21T01:10:26;3.15;;;2.60;;
27187;SDS011;14708;50.872;5.306;2023-04-21T01:12:52;3.08;;;2.78;;
27187;SDS011;14708;50.872;5.306;2023-04-21T01:15:18;3.30;;;3.00;;
27187;SDS011;14708;50.872;5.306;2023-04-21T01:17:43;3.13;;;2.40;;
27187;SDS011;14708;50.872;5.306;2023-04-21T01:20:11;3.95;;;2.88;;
27187;SDS011;14708;50.872;5.306;2023-04-21T01:22:38;3.03;;;2.70;;
27187;SDS011;14708;50.872;5.306;2023-04-21T01:25:05;3.25;;;2.95;;
27187;SDS011;14708;50.872;5.306;2023-04-21T01:27:33;4.57;;;3.13;;
27187;SDS011;14708;50.872;5.306;2023-04-21T01:29:59;3.83;;;3.13;;
27187;SDS011;14708;50.872;5.306;2023-04-21T01:32:26;3.85;;;3.30;;
27187;SDS011;14708;50.872;5.306;2023-04-21T01:34:54;3.30;;;3.00;;
27187;SDS011;14708;50.872;5.306;2023-04-21T01:37:23;3.03;;;2.72;;
27187;SDS011;14708;50.872;5.306;2023-04-21T01:39:52;3.60;;;3.25;;
27187;SDS011;14708;50.872;5.306;2023-04-21T01:42:19;3.55;;;2.85;;
27187;SDS011;14708;50.872;5.306;2023-04-21T01:44:47;2.92;;;2.63;;
27187;SDS011;14708;50.872;5.306;2023-04-21T01:47:13;4.25;;;3.30;;
27187;SDS011;14708;50.872;5.306;2023-04-21T01:53:03;3.38;;;3.00;;
27187;SDS011;14708;50.872;5.306;2023-04-21T01:55:28;3.35;;;3.05;;
27187;SDS011;14708;50.872;5.306;2023-04-21T01:57:54;3.10;;;2.80;;
27187;SDS011;14708;50.872;5.306;2023-04-21T02:00:23;4.05;;;2.83;;
27187;SDS011;14708;50.872;5.306;2023-04-21T02:02:49;3.05;;;2.72;;
27187;SDS011;14708;50.872;5.306;2023-04-21T02:05:15;2.97;;;2.67;;
27187;SDS011;14708;50.872;5.306;2023-04-21T02:07:41;2.75;;;2.55;;
27187;SDS011;14708;50.872;5.306;2023-04-21T02:10:06;3.10;;;2.80;;
27187;SDS011;14708;50.872;5.306;2023-04-21T02:12:32;3.45;;;2.42;;
27187;SDS011;14708;50.872;5.306;2023-04-21T02:14:58;2.88;;;2.40;;
27187;SDS011;14708;50.872;5.306;2023-04-21T02:17:24;3.60;;;2.80;;
27187;SDS011;14708;50.872;5.306;2023-04-21T02:19:50;3.00;;;2.65;;
27187;SDS011;14708;50.872;5.306;2023-04-21T02:22:19;3.35;;;2.67;;
27187;SDS011;14708;50.872;5.306;2023-04-21T02:24:46;3.20;;;2.75;;
27187;SDS011;14708;50.872;5.306;2023-04-21T02:27:12;3.13;;;2.75;;
27187;SDS011;14708;50.872;5.306;2023-04-21T02:29:37;3.95;;;3.10;;
27187;SDS011;14708;50.872;5.306;2023-04-21T02:32:03;3.45;;;2.90;;
27187;SDS011;14708;50.872;5.306;2023-04-21T02:34:29;3.35;;;2.83;;
27187;SDS011;14708;50.872;5.306;2023-04-21T02:36:54;3.03;;;2.70;;
27187;SDS011;14708;50.872;5.306;2023-04-21T02:39:20;3.53;;;2.55;;
27187;SDS011;14708;50.872;5.306;2023-04-21T02:41:46;2.72;;;2.50;;
27187;SDS011;14708;50.872;5.306;2023-04-21T02:44:12;3.05;;;2.75;;
27187;SDS011;14708;50.872;5.306;2023-04-21T02:46:40;3.08;;;2.80;;
27187;SDS011;14708;50.872;5.306;2023-04-21T02:49:06;3.35;;;2.70;;
27187;SDS011;14708;50.872;5.306;2023-04-21T02:51:32;3.15;;;2.55;;
27187;SDS011;14708;50.872;5.306;2023-04-21T02:53:58;2.50;;;2.30;;
27187;SDS011;14708;50.872;5.306;2023-04-21T02:56:24;2.92;;;2.63;;
27187;SDS011;14708;50.872;5.306;2023-04-21T02:58:50;3.03;;;2.67;;
27187;SDS011;14708;50.872;5.306;2023-04-21T03:01:16;3.38;;;2.80;;
27187;SDS011;14708;50.872;5.306;2023-04-21T03:03:41;3.42;;;3.00;;
27187;SDS011;14708;50.872;5.306;2023-04-21T03:06:07;3.47;;;2.65;;
27187;SDS011;14708;50.872;5.306;2023-04-21T03:08:33;3.05;;;2.78;;
27187;SDS011;14708;50.872;5.306;2023-04-21T03:10:59;2.97;;;2.67;;
27187;SDS011;14708;50.872;5.306;2023-04-21T03:13:24;3.10;;;2.80;;
27187;SDS011;14708;50.872;5.306;2023-04-21T03:15:50;3.78;;;2.97;;
27187;SDS011;14708;50.872;5.306;2023-04-21T03:18:16;3.67;;;3.17;;
27187;SDS011;14708;50.872;5.306;2023-04-21T03:20:42;3.70;;;2.97;;
27187;SDS011;14708;50.872;5.306;2023-04-21T03:23:09;2.80;;;2.60;;
27187;SDS011;14708;50.872;5.306;2023-04-21T03:25:36;2.80;;;2.60;;
27187;SDS011;14708;50.872;5.306;2023-04-21T03:28:02;3.17;;;2.75;;
27187;SDS011;14708;50.872;5.306;2023-04-21T03:30:28;3.25;;;2.72;;
27187;SDS011;14708;50.872;5.306;2023-04-21T03:32:54;3.17;;;2.88;;
27187;SDS011;14708;50.872;5.306;2023-04-21T03:35:22;2.95;;;2.67;;
27187;SDS011;14708;50.872;5.306;2023-04-21T03:37:48;2.95;;;2.65;;
27187;SDS011;14708;50.872;5.306;2023-04-21T03:40:14;3.35;;;3.05;;
27187;SDS011;14708;50.872;5.306;2023-04-21T03:42:40;2.50;;;2.30;;
27187;SDS011;14708;50.872;5.306;2023-04-21T03:45:08;2.45;;;2.25;;
27187;SDS011;14708;50.872;5.306;2023-04-21T03:47:35;3.25;;;2.90;;
27187;SDS011;14708;50.872;5.306;2023-04-21T03:50:19;2.88;;;2.65;;
27187;SDS011;14708;50.872;5.306;2023-04-21T03:52:45;3.20;;;2.90;;
27187;SDS011;14708;50.872;5.306;2023-04-21T03:55:11;3.13;;;2.83;;
27187;SDS011;14708;50.872;5.306;2023-04-21T03:57:40;2.70;;;2.50;;
27187;SDS011;14708;50.872;5.306;2023-04-21T04:00:07;3.65;;;2.70;;
27187;SDS011;14708;50.872;5.306;2023-04-21T04:02:36;2.75;;;2.55;;
27187;SDS011;14708;50.872;5.306;2023-04-21T04:08:40;2.67;;;2.47;;
27187;SDS011;14708;50.872;5.306;2023-04-21T04:11:05;3.10;;;2.80;;
27187;SDS011;14708;50.872;5.306;2023-04-21T04:13:31;2.83;;;2.53;;
27187;SDS011;14708;50.872;5.306;2023-04-21T04:15:56;2.67;;;2.40;;
27187;SDS011;14708;50.872;5.306;2023-04-21T04:18:23;3.10;;;2.80;;
27187;SDS011;14708;50.872;5.306;2023-04-21T04:23:33;2.85;;;2.50;;
27187;SDS011;14708;50.872;5.306;2023-04-21T04:25:59;2.78;;;2.58;;
27187;SDS011;14708;50.872;5.306;2023-04-21T04:28:29;2.90;;;2.70;;
27187;SDS011;14708;50.872;5.306;2023-04-21T04:30:55;2.75;;;2.55;;
27187;SDS011;14708;50.872;5.306;2023-04-21T04:33:21;2.88;;;2.58;;
27187;SDS011;14708;50.872;5.306;2023-04-21T04:35:47;2.65;;;2.45;;
27187;SDS011;14708;50.872;5.306;2023-04-21T04:38:13;3.33;;;2.85;;
27187;SDS011;14708;50.872;5.306;2023-04-21T04:40:40;2.85;;;2.55;;
27187;SDS011;14708;50.872;5.306;2023-04-21T04:43:06;2.88;;;2.67;;
27187;SDS011;14708;50.872;5.306;2023-04-21T04:45:34;2.70;;;2.47;;
27187;SDS011;14708;50.872;5.306;2023-04-21T04:48:01;4.38;;;2.88;;
27187;SDS011;14708;50.872;5.306;2023-04-21T04:50:27;3.05;;;2.65;;
27187;SDS011;14708;50.872;5.306;2023-04-21T04:56:15;2.90;;;2.60;;
27187;SDS011;14708;50.872;5.306;2023-04-21T04:58:41;3.50;;;3.20;;
27187;SDS011;14708;50.872;5.306;2023-04-21T05:01:14;2.70;;;2.50;;
27187;SDS011;14708;50.872;5.306;2023-04-21T05:03:40;3.38;;;2.70;;
27187;SDS011;14708;50.872;5.306;2023-04-21T05:06:06;3.05;;;2.80;;
27187;SDS011;14708;50.872;5.306;2023-04-21T05:08:33;3.08;;;2.72;;
27187;SDS011;14708;50.872;5.306;2023-04-21T05:10:59;3.00;;;2.75;;
27187;SDS011;14708;50.872;5.306;2023-04-21T05:13:25;3.50;;;3.20;;
27187;SDS011;14708;50.872;5.306;2023-04-21T05:15:59;2.85;;;2.65;;
27187;SDS011;14708;50.872;5.306;2023-04-21T05:18:26;3.10;;;2.80;;
27187;SDS011;14708;50.872;5.306;2023-04-21T05:20:52;3.13;;;2.83;;
27187;SDS011;14708;50.872;5.306;2023-04-21T05:23:18;3.17;;;2.88;;
27187;SDS011;14708;50.872;5.306;2023-04-21T05:25:44;2.97;;;2.78;;
27187;SDS011;14708;50.872;5.306;2023-04-21T05:28:10;3.13;;;2.83;;
27187;SDS011;14708;50.872;5.306;2023-04-21T05:30:36;4.10;;;3.28;;
27187;SDS011;14708;50.872;5.306;2023-04-21T05:33:02;3.17;;;2.88;;
27187;SDS011;14708;50.872;5.306;2023-04-21T05:35:31;3.00;;;2.47;;
27187;SDS011;14708;50.872;5.306;2023-04-21T05:40:23;3.08;;;2.70;;
27187;SDS011;14708;50.872;5.306;2023-04-21T05:42:48;3.33;;;3.03;;
27187;SDS011;14708;50.872;5.306;2023-04-21T05:45:14;3.13;;;2.83;;
27187;SDS011;14708;50.872;5.306;2023-04-21T05:47:40;2.75;;;2.55;;
27187;SDS011;14708;50.872;5.306;2023-04-21T05:53:28;4.53;;;2.75;;
27187;SDS011;14708;50.872;5.306;2023-04-21T05:55:53;3.35;;;3.05;;
27187;SDS011;14708;50.872;5.306;2023-04-21T05:58:19;3.40;;;2.88;;
27187;SDS011;14708;50.872;5.306;2023-04-21T06:00:44;4.13;;;2.40;;
27187;SDS011;14708;50.872;5.306;2023-04-21T06:03:11;3.05;;;2.75;;
27187;SDS011;14708;50.872;5.306;2023-04-21T06:05:40;4.22;;;3.00;;
27187;SDS011;14708;50.872;5.306;2023-04-21T06:08:05;4.00;;;3.50;;
27187;SDS011;14708;50.872;5.306;2023-04-21T06:10:31;12.90;;;5.28;;
27187;SDS011;14708;50.872;5.306;2023-04-21T06:12:57;14.93;;;6.45;;
27187;SDS011;14708;50.872;5.306;2023-04-21T06:15:23;12.77;;;5.50;;
27187;SDS011;14708;50.872;5.306;2023-04-21T06:17:52;13.52;;;6.03;;
27187;SDS011;14708;50.872;5.306;2023-04-21T06:20:21;13.93;;;6.00;;
27187;SDS011;14708;50.872;5.306;2023-04-21T06:22:47;14.55;;;6.15;;
27187;SDS011;14708;50.872;5.306;2023-04-21T06:25:12;13.82;;;5.55;;
27187;SDS011;14708;50.872;5.306;2023-04-21T06:27:41;11.30;;;5.35;;
27187;SDS011;14708;50.872;5.306;2023-04-21T06:30:09;13.52;;;5.30;;
27187;SDS011;14708;50.872;5.306;2023-04-21T06:32:35;12.57;;;5.80;;
27187;SDS011;14708;50.872;5.306;2023-04-21T06:38:23;12.60;;;5.45;;
27187;SDS011;14708;50.872;5.306;2023-04-21T06:40:49;11.32;;;5.28;;
27187;SDS011;14708;50.872;5.306;2023-04-21T06:43:15;10.93;;;5.22;;
27187;SDS011;14708;50.872;5.306;2023-04-21T06:45:40;10.85;;;5.25;;
27187;SDS011;14708;50.872;5.306;2023-04-21T06:48:06;11.20;;;5.35;;
27187;SDS011;14708;50.872;5.306;2023-04-21T06:50:32;10.32;;;4.93;;
27187;SDS011;14708;50.872;5.306;2023-04-21T06:52:58;10.40;;;4.75;;
27187;SDS011;14708;50.872;5.306;2023-04-21T06:55:23;12.77;;;5.75;;
27187;SDS011;14708;50.872;5.306;2023-04-21T06:57:49;11.30;;;5.45;;
27187;SDS011;14708;50.872;5.306;2023-04-21T07:00:15;12.65;;;5.25;;
27187;SDS011;14708;50.872;5.306;2023-04-21T07:02:41;6.82;;;4.38;;
27187;SDS011;14708;50.872;5.306;2023-04-21T07:05:07;11.80;;;4.82;;
27187;SDS011;14708;50.872;5.306;2023-04-21T07:07:33;14.20;;;5.18;;
27187;SDS011;14708;50.872;5.306;2023-04-21T07:09:59;11.05;;;5.57;;
27187;SDS011;14708;50.872;5.306;2023-04-21T07:12:25;11.30;;;5.47;;
27187;SDS011;14708;50.872;5.306;2023-04-21T07:14:50;19.20;;;6.82;;
27187;SDS011;14708;50.872;5.306;2023-04-21T07:17:19;22.83;;;7.13;;
27187;SDS011;14708;50.872;5.306;2023-04-21T07:19:45;24.55;;;8.13;;
27187;SDS011;14708;50.872;5.306;2023-04-21T07:22:11;22.30;;;7.80;;
27187;SDS011;14708;50.872;5.306;2023-04-21T07:24:37;23.70;;;7.63;;
27187;SDS011;14708;50.872;5.306;2023-04-21T07:27:03;23.00;;;7.05;;
27187;SDS011;14708;50.872;5.306;2023-04-21T07:29:29;22.60;;;7.53;;
27187;SDS011;14708;50.872;5.306;2023-04-21T07:31:54;27.65;;;8.68;;
27187;SDS011;14708;50.872;5.306;2023-04-21T07:34:22;27.10;;;8.38;;
27187;SDS011;14708;50.872;5.306;2023-04-21T07:44:12;21.60;;;8.32;;
27187;SDS011;14708;50.872;5.306;2023-04-21T07:46:38;25.83;;;8.52;;
27187;SDS011;14708;50.872;5.306;2023-04-21T07:49:03;26.10;;;8.20;;
27187;SDS011;14708;50.872;5.306;2023-04-21T07:51:29;28.15;;;9.00;;
27187;SDS011;14708;50.872;5.306;2023-04-21T07:53:55;28.48;;;8.25;;
27187;SDS011;14708;50.872;5.306;2023-04-21T07:56:21;21.05;;;8.30;;
27187;SDS011;14708;50.872;5.306;2023-04-21T07:58:49;21.48;;;7.75;;
27187;SDS011;14708;50.872;5.306;2023-04-21T08:01:15;21.10;;;7.85;;
27187;SDS011;14708;50.872;5.306;2023-04-21T08:03:41;22.33;;;8.15;;
27187;SDS011;14708;50.872;5.306;2023-04-21T08:06:07;19.38;;;7.90;;
27187;SDS011;14708;50.872;5.306;2023-04-21T08:08:33;23.45;;;8.75;;
27187;SDS011;14708;50.872;5.306;2023-04-21T08:10:58;22.05;;;8.57;;
27187;SDS011;14708;50.872;5.306;2023-04-21T08:13:25;18.90;;;8.05;;
27187;SDS011;14708;50.872;5.306;2023-04-21T08:15:51;23.88;;;8.13;;
27187;SDS011;14708;50.872;5.306;2023-04-21T08:25:00;22.95;;;7.63;;
27187;SDS011;14708;50.872;5.306;2023-04-21T08:27:26;15.88;;;6.40;;
27187;SDS011;14708;50.872;5.306;2023-04-21T08:29:51;17.85;;;7.35;;
27187;SDS011;14708;50.872;5.306;2023-04-21T08:32:17;16.42;;;7.15;;
27187;SDS011;14708;50.872;5.306;2023-04-21T08:34:47;20.30;;;9.80;;
27187;SDS011;14708;50.872;5.306;2023-04-21T08:39:43;17.13;;;8.27;;
27187;SDS011;14708;50.872;5.306;2023-04-21T08:42:09;19.38;;;8.18;;
27187;SDS011;14708;50.872;5.306;2023-04-21T08:44:37;18.98;;;8.85;;
27187;SDS011;14708;50.872;5.306;2023-04-21T08:47:04;24.08;;;9.52;;
27187;SDS011;14708;50.872;5.306;2023-04-21T08:49:30;22.50;;;8.52;;
27187;SDS011;14708;50.872;5.306;2023-04-21T08:51:58;23.33;;;9.00;;
27187;SDS011;14708;50.872;5.306;2023-04-21T08:54:24;23.10;;;8.63;;
27187;SDS011;14708;50.872;5.306;2023-04-21T08:56:51;21.80;;;9.35;;
27187;SDS011;14708;50.872;5.306;2023-04-21T08:59:18;29.50;;;10.35;;
27187;SDS011;14708;50.872;5.306;2023-04-21T09:04:34;29.20;;;10.55;;
27187;SDS011;14708;50.872;5.306;2023-04-21T09:07:03;31.10;;;11.63;;
27187;SDS011;14708;50.872;5.306;2023-04-21T09:09:28;47.45;;;14.90;;
27187;SDS011;14708;50.872;5.306;2023-04-21T09:11:57;51.22;;;15.02;;
27187;SDS011;14708;50.872;5.306;2023-04-21T09:14:33;47.42;;;15.00;;
27187;SDS011;14708;50.872;5.306;2023-04-21T09:17:02;41.53;;;14.73;;
27187;SDS011;14708;50.872;5.306;2023-04-21T09:22:51;62.20;;;17.40;;
27187;SDS011;14708;50.872;5.306;2023-04-21T09:25:20;50.72;;;15.73;;
27187;SDS011;14708;50.872;5.306;2023-04-21T09:30:12;48.08;;;15.35;;
27187;SDS011;14708;50.872;5.306;2023-04-21T09:32:42;40.60;;;13.63;;
27187;SDS011;14708;50.872;5.306;2023-04-21T09:37:53;36.83;;;13.75;;
27187;SDS011;14708;50.872;5.306;2023-04-21T09:40:19;34.97;;;12.80;;
27187;SDS011;14708;50.872;5.306;2023-04-21T09:42:44;33.78;;;13.32;;
27187;SDS011;14708;50.872;5.306;2023-04-21T09:45:11;33.28;;;13.52;;
27187;SDS011;14708;50.872;5.306;2023-04-21T09:47:39;31.98;;;12.63;;
27187;SDS011;14708;50.872;5.306;2023-04-21T09:50:07;32.47;;;13.25;;
27187;SDS011;14708;50.872;5.306;2023-04-21T09:52:41;28.65;;;12.40;;
27187;SDS011;14708;50.872;5.306;2023-04-21T09:55:12;33.15;;;12.70;;
27187;SDS011;14708;50.872;5.306;2023-04-21T09:57:38;29.58;;;12.30;;
27187;SDS011;14708;50.872;5.306;2023-04-21T10:00:06;23.05;;;11.73;;
27187;SDS011;14708;50.872;5.306;2023-04-21T10:02:37;30.48;;;12.57;;
27187;SDS011;14708;50.872;5.306;2023-04-21T10:05:07;30.73;;;11.32;;
27187;SDS011;14708;50.872;5.306;2023-04-21T10:07:35;32.35;;;11.15;;
27187;SDS011;14708;50.872;5.306;2023-04-21T10:10:00;22.95;;;10.85;;
27187;SDS011;14708;50.872;5.306;2023-04-21T10:12:27;29.38;;;11.32;;
27187;SDS011;14708;50.872;5.306;2023-04-21T10:14:53;30.25;;;10.68;;
27187;SDS011;14708;50.872;5.306;2023-04-21T10:17:23;27.33;;;10.77;;
27187;SDS011;14708;50.872;5.306;2023-04-21T10:19:51;24.00;;;10.90;;
27187;SDS011;14708;50.872;5.306;2023-04-21T10:22:33;25.65;;;10.88;;
27187;SDS011;14708;50.872;5.306;2023-04-21T10:25:00;25.35;;;10.32;;
27187;SDS011;14708;50.872;5.306;2023-04-21T10:27:31;23.83;;;10.45;;
27187;SDS011;14708;50.872;5.306;2023-04-21T10:29:59;25.05;;;10.48;;
27187;SDS011;14708;50.872;5.306;2023-04-21T10:32:38;23.95;;;10.05;;
27187;SDS011;14708;50.872;5.306;2023-04-21T10:35:12;26.10;;;10.05;;
27187;SDS011;14708;50.872;5.306;2023-04-21T10:38:00;25.50;;;10.77;;
27187;SDS011;14708;50.872;5.306;2023-04-21T10:42:54;20.90;;;10.38;;
27187;SDS011;14708;50.872;5.306;2023-04-21T10:45:40;23.63;;;10.57;;
27187;SDS011;14708;50.872;5.306;2023-04-21T10:48:12;24.42;;;10.45;;
27187;SDS011;14708;50.872;5.306;2023-04-21T10:50:38;25.58;;;10.27;;
27187;SDS011;14708;50.872;5.306;2023-04-21T10:53:07;26.95;;;11.00;;
27187;SDS011;14708;50.872;5.306;2023-04-21T10:55:37;27.90;;;10.65;;
27187;SDS011;14708;50.872;5.306;2023-04-21T10:58:04;21.92;;;10.50;;
27187;SDS011;14708;50.872;5.306;2023-04-21T11:00:33;23.35;;;10.18;;
27187;SDS011;14708;50.872;5.306;2023-04-21T11:03:03;20.77;;;10.55;;
27187;SDS011;14708;50.872;5.306;2023-04-21T11:05:33;21.13;;;10.10;;
27187;SDS011;14708;50.872;5.306;2023-04-21T11:08:21;21.98;;;9.15;;
27187;SDS011;14708;50.872;5.306;2023-04-21T11:10:48;20.05;;;10.38;;
27187;SDS011;14708;50.872;5.306;2023-04-21T11:13:20;19.00;;;9.55;;
27187;SDS011;14708;50.872;5.306;2023-04-21T11:16:00;22.08;;;9.40;;
27187;SDS011;14708;50.872;5.306;2023-04-21T11:18:35;23.98;;;9.52;;
27187;SDS011;14708;50.872;5.306;2023-04-21T11:21:07;20.63;;;9.13;;
27187;SDS011;14708;50.872;5.306;2023-04-21T11:23:37;20.58;;;9.77;;
27187;SDS011;14708;50.872;5.306;2023-04-21T11:26:05;16.33;;;8.45;;
27187;SDS011;14708;50.872;5.306;2023-04-21T11:28:30;20.65;;;9.07;;
27187;SDS011;14708;50.872;5.306;2023-04-21T11:30:56;20.35;;;9.43;;
27187;SDS011;14708;50.872;5.306;2023-04-21T11:33:22;18.38;;;9.02;;
27187;SDS011;14708;50.872;5.306;2023-04-21T11:35:48;18.98;;;8.68;;
27187;SDS011;14708;50.872;5.306;2023-04-21T11:38:22;19.35;;;9.18;;
27187;SDS011;14708;50.872;5.306;2023-04-21T11:40:49;18.77;;;8.60;;
27187;SDS011;14708;50.872;5.306;2023-04-21T11:43:16;17.15;;;8.65;;
27187;SDS011;14708;50.872;5.306;2023-04-21T11:45:42;15.48;;;8.63;;
27187;SDS011;14708;50.872;5.306;2023-04-21T11:48:12;18.52;;;8.77;;
27187;SDS011;14708;50.872;5.306;2023-04-21T11:50:50;16.95;;;9.23;;
27187;SDS011;14708;50.872;5.306;2023-04-21T11:53:17;13.77;;;7.82;;
27187;SDS011;14708;50.872;5.306;2023-04-21T11:55:46;13.32;;;8.05;;
27187;SDS011;14708;50.872;5.306;2023-04-21T11:58:12;16.08;;;8.20;;
27187;SDS011;14708;50.872;5.306;2023-04-21T12:00:43;15.48;;;7.40;;
27187;SDS011;14708;50.872;5.306;2023-04-21T12:03:14;12.15;;;6.28;;
27187;SDS011;14708;50.872;5.306;2023-04-21T12:06:05;13.07;;;6.20;;
27187;SDS011;14708;50.872;5.306;2023-04-21T12:08:54;14.03;;;6.20;;
27187;SDS011;14708;50.872;5.306;2023-04-21T12:19:07;9.13;;;6.50;;
27187;SDS011;14708;50.872;5.306;2023-04-21T12:21:36;9.73;;;5.28;;
27187;SDS011;14708;50.872;5.306;2023-04-21T12:24:05;11.90;;;5.53;;
27187;SDS011;14708;50.872;5.306;2023-04-21T12:26:30;10.82;;;5.72;;
27187;SDS011;14708;50.872;5.306;2023-04-21T12:28:56;9.88;;;5.60;;
27187;SDS011;14708;50.872;5.306;2023-04-21T12:36:38;8.43;;;5.18;;
27187;SDS011;14708;50.872;5.306;2023-04-21T12:39:04;9.52;;;5.38;;
27187;SDS011;14708;50.872;5.306;2023-04-21T12:41:30;9.98;;;5.38;;
27187;SDS011;14708;50.872;5.306;2023-04-21T12:43:56;9.63;;;4.80;;
27187;SDS011;14708;50.872;5.306;2023-04-21T12:46:24;8.13;;;5.13;;
27187;SDS011;14708;50.872;5.306;2023-04-21T12:48:50;8.32;;;5.15;;
27187;SDS011;14708;50.872;5.306;2023-04-21T12:51:16;9.20;;;5.25;;
27187;SDS011;14708;50.872;5.306;2023-04-21T12:53:42;14.18;;;5.72;;
27187;SDS011;14708;50.872;5.306;2023-04-21T12:56:09;8.50;;;4.80;;
27187;SDS011;14708;50.872;5.306;2023-04-21T12:58:37;14.60;;;4.88;;
27187;SDS011;14708;50.872;5.306;2023-04-21T13:01:02;7.95;;;4.20;;
27187;SDS011;14708;50.872;5.306;2023-04-21T13:03:29;5.78;;;3.83;;
27187;SDS011;14708;50.872;5.306;2023-04-21T13:06:13;8.43;;;4.30;;
27187;SDS011;14708;50.872;5.306;2023-04-21T13:08:39;10.02;;;4.38;;
27187;SDS011;14708;50.872;5.306;2023-04-21T13:11:05;9.13;;;4.68;;
27187;SDS011;14708;50.872;5.306;2023-04-21T13:13:31;9.10;;;4.22;;
27187;SDS011;14708;50.872;5.306;2023-04-21T13:15:56;8.50;;;4.30;;
27187;SDS011;14708;50.872;5.306;2023-04-21T13:18:22;10.48;;;4.90;;
27187;SDS011;14708;50.872;5.306;2023-04-21T13:20:48;8.15;;;4.72;;
27187;SDS011;14708;50.872;5.306;2023-04-21T13:23:14;6.38;;;4.07;;
27187;SDS011;14708;50.872;5.306;2023-04-21T13:25:40;5.88;;;4.28;;
27187;SDS011;14708;50.872;5.306;2023-04-21T13:28:06;6.30;;;3.72;;
27187;SDS011;14708;50.872;5.306;2023-04-21T13:30:32;7.93;;;3.97;;
27187;SDS011;14708;50.872;5.306;2023-04-21T13:32:58;6.40;;;4.70;;
27187;SDS011;14708;50.872;5.306;2023-04-21T13:35:24;8.05;;;3.70;;
27187;SDS011;14708;50.872;5.306;2023-04-21T13:37:50;7.05;;;3.92;;
27187;SDS011;14708;50.872;5.306;2023-04-21T13:40:16;9.23;;;4.57;;
27187;SDS011;14708;50.872;5.306;2023-04-21T13:42:43;11.40;;;4.28;;
27187;SDS011;14708;50.872;5.306;2023-04-21T13:45:10;11.07;;;4.30;;
27187;SDS011;14708;50.872;5.306;2023-04-21T13:47:36;7.32;;;4.30;;
27187;SDS011;14708;50.872;5.306;2023-04-21T13:50:05;9.65;;;3.78;;
27187;SDS011;14708;50.872;5.306;2023-04-21T13:52:31;11.43;;;3.53;;
27187;SDS011;14708;50.872;5.306;2023-04-21T13:54:58;10.13;;;4.07;;
27187;SDS011;14708;50.872;5.306;2023-04-21T14:01:01;11.07;;;3.95;;
27187;SDS011;14708;50.872;5.306;2023-04-21T14:03:28;10.00;;;4.10;;
27187;SDS011;14708;50.872;5.306;2023-04-21T14:05:54;24.98;;;4.50;;
27187;SDS011;14708;50.872;5.306;2023-04-21T14:08:20;10.32;;;4.60;;
27187;SDS011;14708;50.872;5.306;2023-04-21T14:10:47;14.50;;;4.85;;
27187;SDS011;14708;50.872;5.306;2023-04-21T14:13:12;20.45;;;4.45;;
27187;SDS011;14708;50.872;5.306;2023-04-21T14:15:38;17.42;;;4.57;;
27187;SDS011;14708;50.872;5.306;2023-04-21T14:18:04;21.73;;;5.20;;
27187;SDS011;14708;50.872;5.306;2023-04-21T14:20:30;19.58;;;4.95;;
27187;SDS011;14708;50.872;5.306;2023-04-21T14:23:03;16.10;;;4.93;;
27187;SDS011;14708;50.872;5.306;2023-04-21T14:25:29;11.07;;;4.22;;
27187;SDS011;14708;50.872;5.306;2023-04-21T14:28:01;12.43;;;4.18;;
27187;SDS011;14708;50.872;5.306;2023-04-21T14:30:31;18.98;;;5.07;;
27187;SDS011;14708;50.872;5.306;2023-04-21T14:32:57;9.27;;;4.63;;
27187;SDS011;14708;50.872;5.306;2023-04-21T14:35:22;16.23;;;5.00;;
27187;SDS011;14708;50.872;5.306;2023-04-21T14:37:48;13.90;;;4.75;;
27187;SDS011;14708;50.872;5.306;2023-04-21T14:40:14;16.00;;;4.90;;
27187;SDS011;14708;50.872;5.306;2023-04-21T14:42:43;14.32;;;4.95;;
27187;SDS011;14708;50.872;5.306;2023-04-21T14:45:09;13.35;;;4.18;;
27187;SDS011;14708;50.872;5.306;2023-04-21T14:47:35;13.25;;;4.32;;
27187;SDS011;14708;50.872;5.306;2023-04-21T14:50:01;9.27;;;4.25;;
27187;SDS011;14708;50.872;5.306;2023-04-21T14:52:28;11.45;;;4.63;;
27187;SDS011;14708;50.872;5.306;2023-04-21T14:54:54;15.18;;;4.53;;
27187;SDS011;14708;50.872;5.306;2023-04-21T14:57:19;8.90;;;3.92;;
27187;SDS011;14708;50.872;5.306;2023-04-21T14:59:46;15.45;;;4.78;;
27187;SDS011;14708;50.872;5.306;2023-04-21T15:02:13;10.75;;;4.28;;
27187;SDS011;14708;50.872;5.306;2023-04-21T15:04:38;12.40;;;4.55;;
27187;SDS011;14708;50.872;5.306;2023-04-21T15:07:04;19.05;;;4.97;;
27187;SDS011;14708;50.872;5.306;2023-04-21T15:09:30;12.10;;;4.82;;
27187;SDS011;14708;50.872;5.306;2023-04-21T15:11:56;11.98;;;4.10;;
27187;SDS011;14708;50.872;5.306;2023-04-21T15:14:23;9.48;;;4.07;;
27187;SDS011;14708;50.872;5.306;2023-04-21T15:16:49;11.13;;;4.47;;
27187;SDS011;14708;50.872;5.306;2023-04-21T15:19:14;9.75;;;3.70;;
27187;SDS011;14708;50.872;5.306;2023-04-21T15:21:40;11.27;;;3.78;;
27187;SDS011;14708;50.872;5.306;2023-04-21T15:24:09;7.68;;;4.65;;
27187;SDS011;14708;50.872;5.306;2023-04-21T15:26:34;10.95;;;4.03;;
27187;SDS011;14708;50.872;5.306;2023-04-21T15:29:02;12.18;;;3.80;;
27187;SDS011;14708;50.872;5.306;2023-04-21T15:31:28;7.95;;;3.72;;
27187;SDS011;14708;50.872;5.306;2023-04-21T15:33:53;9.60;;;3.53;;
27187;SDS011;14708;50.872;5.306;2023-04-21T15:36:19;10.38;;;3.95;;
27187;SDS011;14708;50.872;5.306;2023-04-21T15:38:45;11.95;;;3.90;;
27187;SDS011;14708;50.872;5.306;2023-04-21T15:41:11;10.50;;;4.05;;
27187;SDS011;14708;50.872;5.306;2023-04-21T15:51:28;13.38;;;4.15;;
27187;SDS011;14708;50.872;5.306;2023-04-21T15:53:55;14.82;;;4.63;;
27187;SDS011;14708;50.872;5.306;2023-04-21T15:56:21;13.77;;;5.00;;
27187;SDS011;14708;50.872;5.306;2023-04-21T15:58:46;14.60;;;4.43;;